Terminal Aerodrome Forecast
Issued by NWS

Home | Current Version | Previous Version | Text Only | Print | Product List | Glossary Off
Versions: 1 2 3 4 5 6 7 8 9 10 11 12 13 14 15 16 17 18 19 20 21 22 23 24 25 26 27 28

000
FTUS43 KLOT 271740
TAFMDW
TAF
KMDW 271740Z 2718/2818 25017G27KT P6SM OVC022
     FM280000 24010G16KT P6SM OVC030
     FM280300 22006KT P6SM BKN035
     FM281200 15006KT P6SM BKN060 BKN150=

USA.gov is the U.S. government's official web portal to all federal, state and local government web resources and services.